sensor_id;sensor_type;location;lat;lon;timestamp;temperature;humidity
431;DHT22;202;48.764;9.172;2022-07-06T01:03:00;20.90;37.40
431;DHT22;202;48.764;9.172;2022-07-06T06:35:57;20.70;43.30
431;DHT22;202;48.764;9.172;2022-07-06T07:21:05;26.60;29.60
431;DHT22;202;48.764;9.172;2022-07-06T09:17:52;29.20;26.70
431;DHT22;202;48.764;9.172;2022-07-06T09:20:54;29.30;25.90
431;DHT22;202;48.764;9.172;2022-07-06T10:39:14;27.60;28.40
431;DHT22;202;48.764;9.172;2022-07-06T12:45:52;25.60;30.00
431;DHT22;202;48.764;9.172;2022-07-06T12:48:35;25.70;30.80
431;DHT22;202;48.764;9.172;2022-07-06T12:51:18;25.90;31.00
431;DHT22;202;48.764;9.172;2022-07-06T12:53:49;25.90;29.80
431;DHT22;202;48.764;9.172;2022-07-06T12:56:58;25.90;30.20
431;DHT22;202;48.764;9.172;2022-07-06T13:02:54;25.80;30.10
431;DHT22;202;48.764;9.172;2022-07-06T13:05:26;25.70;31.90
431;DHT22;202;48.764;9.172;2022-07-06T13:08:06;25.90;30.60
431;DHT22;202;48.764;9.172;2022-07-06T13:11:41;25.70;29.70
431;DHT22;202;48.764;9.172;2022-07-06T13:14:00;25.50;29.70
431;DHT22;202;48.764;9.172;2022-07-06T13:16:35;25.40;30.10
431;DHT22;202;48.764;9.172;2022-07-06T13:19:14;25.20;30.50
431;DHT22;202;48.764;9.172;2022-07-06T13:21:41;25.30;31.00
431;DHT22;202;48.764;9.172;2022-07-06T13:24:20;25.30;30.10
431;DHT22;202;48.764;9.172;2022-07-06T13:27:02;25.30;30.70
431;DHT22;202;48.764;9.172;2022-07-06T13:30:09;25.30;30.70
431;DHT22;202;48.764;9.172;2022-07-06T13:33:11;25.30;31.00
431;DHT22;202;48.764;9.172;2022-07-06T13:35:57;25.30;31.00
431;DHT22;202;48.764;9.172;2022-07-06T13:38:24;25.40;30.80
431;DHT22;202;48.764;9.172;2022-07-06T13:41:00;25.50;29.80
431;DHT22;202;48.764;9.172;2022-07-06T13:44:09;25.60;30.00
431;DHT22;202;48.764;9.172;2022-07-06T13:46:44;25.60;30.40
431;DHT22;202;48.764;9.172;2022-07-06T13:49:12;25.80;30.60
431;DHT22;202;48.764;9.172;2022-07-06T13:51:40;25.80;29.30
431;DHT22;202;48.764;9.172;2022-07-06T13:54:08;25.80;29.90
431;DHT22;202;48.764;9.172;2022-07-06T13:56:36;25.80;30.00
431;DHT22;202;48.764;9.172;2022-07-06T13:59:03;25.80;30.00
431;DHT22;202;48.764;9.172;2022-07-06T14:01:30;25.80;29.80
431;DHT22;202;48.764;9.172;2022-07-06T14:03:59;25.80;29.60
431;DHT22;202;48.764;9.172;2022-07-06T14:06:28;25.80;30.00
431;DHT22;202;48.764;9.172;2022-07-06T14:08:58;25.80;29.30
431;DHT22;202;48.764;9.172;2022-07-06T14:11:29;25.80;28.80
431;DHT22;202;48.764;9.172;2022-07-06T14:13:57;25.60;29.40
431;DHT22;202;48.764;9.172;2022-07-06T14:16:25;25.60;29.40
431;DHT22;202;48.764;9.172;2022-07-06T14:18:52;25.40;29.20
431;DHT22;202;48.764;9.172;2022-07-06T14:21:19;25.20;29.80
431;DHT22;202;48.764;9.172;2022-07-06T14:23:47;25.30;30.20
431;DHT22;202;48.764;9.172;2022-07-06T14:26:16;25.40;29.60
431;DHT22;202;48.764;9.172;2022-07-06T14:28:43;25.40;29.70
431;DHT22;202;48.764;9.172;2022-07-06T14:31:10;25.40;29.70
431;DHT22;202;48.764;9.172;2022-07-06T14:33:43;25.50;29.80
431;DHT22;202;48.764;9.172;2022-07-06T14:36:12;25.50;29.70
431;DHT22;202;48.764;9.172;2022-07-06T14:38:39;25.40;29.20
431;DHT22;202;48.764;9.172;2022-07-06T14:41:06;25.40;29.20
431;DHT22;202;48.764;9.172;2022-07-06T14:43:38;25.10;29.00
431;DHT22;202;48.764;9.172;2022-07-06T14:46:06;25.00;29.90
431;DHT22;202;48.764;9.172;2022-07-06T14:48:33;25.00;30.00
431;DHT22;202;48.764;9.172;2022-07-06T14:51:04;25.00;29.40
431;DHT22;202;48.764;9.172;2022-07-06T14:53:31;25.10;29.40
431;DHT22;202;48.764;9.172;2022-07-06T14:55:58;25.00;29.20
431;DHT22;202;48.764;9.172;2022-07-06T14:58:26;25.00;30.00
431;DHT22;202;48.764;9.172;2022-07-06T15:01:01;25.10;29.90
431;DHT22;202;48.764;9.172;2022-07-06T15:03:28;25.10;29.70
431;DHT22;202;48.764;9.172;2022-07-06T15:05:57;25.20;29.60
431;DHT22;202;48.764;9.172;2022-07-06T15:08:31;25.20;29.60
431;DHT22;202;48.764;9.172;2022-07-06T15:10:58;25.20;29.50
431;DHT22;202;48.764;9.172;2022-07-06T15:13:25;25.10;29.40
431;DHT22;202;48.764;9.172;2022-07-06T15:15:52;25.20;30.00
431;DHT22;202;48.764;9.172;2022-07-06T15:18:21;25.10;28.90
431;DHT22;202;48.764;9.172;2022-07-06T15:20:53;25.10;29.30
431;DHT22;202;48.764;9.172;2022-07-06T15:23:22;25.10;29.60
431;DHT22;202;48.764;9.172;2022-07-06T15:25:55;25.20;29.50
431;DHT22;202;48.764;9.172;2022-07-06T15:28:31;25.20;28.80
431;DHT22;202;48.764;9.172;2022-07-06T15:30:58;25.30;28.80
431;DHT22;202;48.764;9.172;2022-07-06T15:33:27;25.20;28.90
431;DHT22;202;48.764;9.172;2022-07-06T15:35:54;25.20;28.70
431;DHT22;202;48.764;9.172;2022-07-06T15:38:22;25.10;28.30
431;DHT22;202;48.764;9.172;2022-07-06T15:40:49;25.10;28.80
431;DHT22;202;48.764;9.172;2022-07-06T15:43:21;25.00;28.40
431;DHT22;202;48.764;9.172;2022-07-06T15:45:55;25.00;28.90
431;DHT22;202;48.764;9.172;2022-07-06T15:48:31;25.00;28.60
431;DHT22;202;48.764;9.172;2022-07-06T15:50:59;25.00;28.90
431;DHT22;202;48.764;9.172;2022-07-06T15:53:26;25.00;29.00
431;DHT22;202;48.764;9.172;2022-07-06T15:55:55;25.00;28.70
431;DHT22;202;48.764;9.172;2022-07-06T15:58:26;25.10;28.80
431;DHT22;202;48.764;9.172;2022-07-06T16:00:57;25.00;29.00
431;DHT22;202;48.764;9.172;2022-07-06T16:03:26;25.00;28.90
431;DHT22;202;48.764;9.172;2022-07-06T16:05:55;25.00;28.80
431;DHT22;202;48.764;9.172;2022-07-06T16:08:22;24.90;28.70
431;DHT22;202;48.764;9.172;2022-07-06T16:10:50;25.00;28.40
431;DHT22;202;48.764;9.172;2022-07-06T16:13:23;25.00;28.50
431;DHT22;202;48.764;9.172;2022-07-06T16:15:50;24.80;28.20
431;DHT22;202;48.764;9.172;2022-07-06T16:18:22;24.80;29.40
431;DHT22;202;48.764;9.172;2022-07-06T16:21:03;24.80;29.20
431;DHT22;202;48.764;9.172;2022-07-06T16:23:30;24.90;28.80
431;DHT22;202;48.764;9.172;2022-07-06T16:25:57;24.90;28.30
431;DHT22;202;48.764;9.172;2022-07-06T16:28:29;24.90;28.40
431;DHT22;202;48.764;9.172;2022-07-06T16:31:01;24.80;28.40
431;DHT22;202;48.764;9.172;2022-07-06T16:33:30;24.90;27.90
431;DHT22;202;48.764;9.172;2022-07-06T16:36:02;24.90;27.20
431;DHT22;202;48.764;9.172;2022-07-06T16:38:35;24.90;28.00
431;DHT22;202;48.764;9.172;2022-07-06T16:41:03;24.90;27.60
431;DHT22;202;48.764;9.172;2022-07-06T16:43:31;24.90;27.40
431;DHT22;202;48.764;9.172;2022-07-06T16:45:58;25.00;27.50
431;DHT22;202;48.764;9.172;2022-07-06T16:48:26;24.80;27.10
431;DHT22;202;48.764;9.172;2022-07-06T16:50:55;24.90;27.70
431;DHT22;202;48.764;9.172;2022-07-06T16:53:26;24.90;27.20
431;DHT22;202;48.764;9.172;2022-07-06T16:55:53;24.90;27.20
431;DHT22;202;48.764;9.172;2022-07-06T16:58:20;24.90;27.00
431;DHT22;202;48.764;9.172;2022-07-06T17:00:53;24.80;27.10
431;DHT22;202;48.764;9.172;2022-07-06T17:03:20;24.80;26.60
431;DHT22;202;48.764;9.172;2022-07-06T17:05:52;24.70;26.70
431;DHT22;202;48.764;9.172;2022-07-06T17:08:19;24.60;26.90
431;DHT22;202;48.764;9.172;2022-07-06T17:10:47;24.50;26.90
431;DHT22;202;48.764;9.172;2022-07-06T17:13:14;24.40;26.80
431;DHT22;202;48.764;9.172;2022-07-06T17:15:41;24.40;26.80
431;DHT22;202;48.764;9.172;2022-07-06T17:18:15;24.30;26.50
431;DHT22;202;48.764;9.172;2022-07-06T17:20:42;24.30;26.30
431;DHT22;202;48.764;9.172;2022-07-06T17:23:15;24.30;26.70
431;DHT22;202;48.764;9.172;2022-07-06T17:25:42;24.30;28.90
431;DHT22;202;48.764;9.172;2022-07-06T17:28:11;24.30;29.70
431;DHT22;202;48.764;9.172;2022-07-06T17:30:39;24.30;27.00
431;DHT22;202;48.764;9.172;2022-07-06T17:33:07;24.30;29.00
431;DHT22;202;48.764;9.172;2022-07-06T17:35:36;24.40;29.30
431;DHT22;202;48.764;9.172;2022-07-06T17:38:03;24.30;29.00
431;DHT22;202;48.764;9.172;2022-07-06T17:40:30;24.30;27.80
431;DHT22;202;48.764;9.172;2022-07-06T17:43:02;24.30;26.80
431;DHT22;202;48.764;9.172;2022-07-06T17:45:49;24.20;27.00
431;DHT22;202;48.764;9.172;2022-07-06T17:48:23;24.20;28.40
431;DHT22;202;48.764;9.172;2022-07-06T17:51:03;24.20;28.50
431;DHT22;202;48.764;9.172;2022-07-06T17:53:32;24.20;26.70
431;DHT22;202;48.764;9.172;2022-07-06T17:56:29;24.00;26.60
431;DHT22;202;48.764;9.172;2022-07-06T17:59:04;24.00;27.80
431;DHT22;202;48.764;9.172;2022-07-06T18:01:33;24.00;28.30
431;DHT22;202;48.764;9.172;2022-07-06T18:27:31;23.60;26.30
431;DHT22;202;48.764;9.172;2022-07-06T18:33:20;23.70;28.70
431;DHT22;202;48.764;9.172;2022-07-06T18:34:12;23.70;27.40
431;DHT22;202;48.764;9.172;2022-07-06T18:37:11;23.70;28.00
431;DHT22;202;48.764;9.172;2022-07-06T19:19:32;23.00;28.50
431;DHT22;202;48.764;9.172;2022-07-06T19:22:13;22.90;27.60
431;DHT22;202;48.764;9.172;2022-07-06T19:24:49;22.70;27.70
431;DHT22;202;48.764;9.172;2022-07-06T19:40:30;22.20;28.70
431;DHT22;202;48.764;9.172;2022-07-06T19:43:08;22.10;29.60
431;DHT22;202;48.764;9.172;2022-07-06T19:45:44;22.10;28.20
431;DHT22;202;48.764;9.172;2022-07-06T19:48:26;21.80;28.40
431;DHT22;202;48.764;9.172;2022-07-06T19:51:30;21.80;29.00
431;DHT22;202;48.764;9.172;2022-07-06T19:54:10;21.80;29.50
431;DHT22;202;48.764;9.172;2022-07-06T19:56:43;21.70;29.50
431;DHT22;202;48.764;9.172;2022-07-06T19:59:44;21.80;29.90
431;DHT22;202;48.764;9.172;2022-07-06T20:03:39;21.90;29.90
431;DHT22;202;48.764;9.172;2022-07-06T20:30:48;20.90;31.40
431;DHT22;202;48.764;9.172;2022-07-06T22:12:46;19.40;34.50
431;DHT22;202;48.764;9.172;2022-07-06T22:19:19;19.40;35.50
431;DHT22;202;48.764;9.172;2022-07-06T23:34:42;18.40;37.90
